Time;durP1;ratioP1;P1;durP2;ratioP2;P2;SDS_P1;SDS_P2;PMS_P1;PMS_P2;Temp;Humidity;BMP_temperature;BMP_pressure;BME280_temperature;BME280_humidity;BME280_pressure;Samples;Min_cycle;Max_cycle;Signal;HPM_P1;HPM_P2
2023/04/01 00:00:57;;;;;;;0.77;0.57;;;9.30;83.70;;;12.30;51.16;96233.72;5063201;28;20505;-52
2023/04/01 00:03:26;;;;;;;1.00;0.63;;;9.40;83.10;;;12.29;51.17;96228.56;5060166;28;20055;-55
2023/04/01 00:05:57;;;;;;;0.60;0.60;;;9.40;82.20;;;12.38;50.84;96238.03;5059471;28;20045;-55
2023/04/01 00:08:26;;;;;;;0.97;0.50;;;9.50;81.90;;;12.35;50.63;96222.44;5060724;28;20053;-53
2023/04/01 00:10:54;;;;;;;0.97;0.63;;;9.50;81.10;;;12.40;50.78;96233.28;5062949;28;20041;-53
2023/04/01 00:13:22;;;;;;;2.83;1.00;;;9.60;81.00;;;12.49;50.77;96240.06;5061798;28;20037;-53
2023/04/01 00:15:49;;;;;;;1.90;0.90;;;9.60;80.10;;;12.46;50.73;96239.66;5057280;28;20524;-54
2023/04/01 00:18:17;;;;;;;2.70;1.30;;;9.60;80.50;;;12.58;50.72;96244.16;5059527;28;20052;-51
2023/04/01 00:20:47;;;;;;;3.33;0.80;;;9.60;80.50;;;12.65;50.19;96240.66;5062876;28;20421;-53
2023/04/01 00:23:15;;;;;;;1.53;0.80;;;9.70;80.60;;;12.62;50.25;96239.22;5062691;28;20417;-54
2023/04/01 00:25:45;;;;;;;2.43;1.00;;;9.70;80.20;;;12.70;50.17;96243.53;5051530;28;20045;-52
2023/04/01 00:28:13;;;;;;;3.90;0.87;;;9.70;80.50;;;12.71;50.15;96242.50;5058080;28;20049;-54
2023/04/01 00:30:40;;;;;;;1.13;0.83;;;9.70;80.50;;;12.71;50.36;96251.31;5060822;28;20049;-51
2023/04/01 00:33:08;;;;;;;3.80;1.00;;;9.70;80.60;;;12.67;50.09;96249.28;5062425;28;20036;-54
2023/04/01 00:35:36;;;;;;;2.73;0.70;;;9.70;80.10;;;12.60;50.24;96252.78;5060075;28;20045;-53
2023/04/01 00:38:05;;;;;;;0.67;0.50;;;9.70;79.70;;;12.57;50.31;96247.84;5059410;28;20429;-52
2023/04/01 00:40:38;;;;;;;3.53;0.97;;;9.70;79.30;;;12.59;50.38;96256.47;5061025;28;20052;-53
2023/04/01 00:43:20;;;;;;;4.47;0.90;;;9.70;79.20;;;12.67;50.47;96247.41;5060599;28;20406;-52
2023/04/01 00:45:49;;;;;;;1.87;1.10;;;9.70;78.70;;;12.60;49.79;96243.94;5041432;28;20056;-53
2023/04/01 00:48:22;;;;;;;2.93;1.17;;;9.70;78.40;;;12.68;49.57;96249.06;5057515;28;20049;-52
2023/04/01 00:50:59;;;;;;;2.37;0.77;;;9.80;77.20;;;12.71;49.25;96237.97;5050604;28;20045;-54
2023/04/01 00:53:29;;;;;;;1.73;0.90;;;9.80;77.00;;;12.54;49.34;96242.09;5063423;28;20852;-52
2023/04/01 00:56:07;;;;;;;4.00;2.27;;;9.90;75.10;;;12.72;49.05;96244.97;5048583;28;20056;-53
2023/04/01 00:58:40;;;;;;;3.50;1.27;;;9.90;74.90;;;12.80;48.90;96241.25;5064310;28;20041;-52
2023/04/01 01:01:09;;;;;;;5.40;1.05;;;10.00;75.30;;;12.88;48.72;96224.97;5045415;28;20041;-55
2023/04/01 01:03:37;;;;;;;5.10;1.20;;;10.00;74.60;;;12.84;48.38;96233.63;5063123;28;20045;-53
2023/04/01 01:06:29;;;;;;;3.27;1.23;;;10.00;73.60;;;12.79;48.56;96239.59;5065172;28;20048;-54
2023/04/01 01:09:21;;;;;;;3.53;1.27;;;10.00;73.30;;;12.79;48.48;96243.09;5046373;28;20057;-53
2023/04/01 01:12:11;;;;;;;1.53;1.10;;;10.00;73.90;;;12.78;48.91;96241.44;5053215;28;20048;-51
2023/04/01 01:15:06;;;;;;;2.70;0.77;;;10.00;74.20;;;12.52;49.02;96249.50;5053846;28;20053;-52
2023/04/01 01:18:16;;;;;;;1.33;0.70;;;9.90;74.60;;;12.71;48.78;96247.81;5048913;28;20052;-53
2023/04/01 01:21:07;;;;;;;3.73;1.27;;;9.90;74.20;;;12.74;49.13;96242.09;5064346;28;20425;-53
2023/04/01 01:24:37;;;;;;;2.53;0.83;;;10.00;75.00;;;12.79;48.97;96239.59;5062541;28;20044;-54
2023/04/01 01:27:16;;;;;;;4.67;2.57;;;10.00;73.80;;;12.89;48.30;96240.00;5030340;28;20080;-54
2023/04/01 01:30:24;;;;;;;1.37;0.70;;;10.00;73.60;;;12.79;48.16;96240.44;5064038;28;20056;-54
2023/04/01 01:33:08;;;;;;;1.77;0.73;;;10.00;73.30;;;12.80;48.51;96242.06;5039031;28;20075;-53
2023/04/01 01:35:49;;;;;;;2.00;0.90;;;10.00;74.10;;;12.79;48.33;96240.44;5062725;28;20056;-53
2023/04/01 01:38:26;;;;;;;1.98;1.60;;;10.00;73.00;;;12.72;48.46;96236.94;5064770;28;20425;-50
2023/04/01 01:41:04;;;;;;;2.03;0.87;;;10.00;72.40;;;12.80;47.89;96235.91;5042652;28;20042;-52
2023/04/01 01:43:42;;;;;;;3.23;1.03;;;10.00;71.60;;;12.87;48.12;96238.53;5043615;28;20064;-51
2023/04/01 01:46:17;;;;;;;1.27;0.63;;;10.00;71.30;;;12.72;48.14;96242.28;5048185;28;20048;-53
2023/04/01 01:48:46;;;;;;;2.40;0.93;;;10.00;71.40;;;12.77;47.88;96249.66;5052441;28;20072;-52
2023/04/01 01:51:15;;;;;;;2.33;0.80;;;10.00;72.10;;;12.94;48.32;96250.03;5040797;28;20052;-53
2023/04/01 01:53:43;;;;;;;2.23;0.97;;;10.10;73.20;;;12.79;48.76;96236.91;5061650;28;20049;-53
2023/04/01 01:56:13;;;;;;;3.03;0.80;;;10.00;74.40;;;12.85;48.90;96235.25;5047904;28;20055;-53
2023/04/01 01:58:50;;;;;;;2.07;0.87;;;10.00;75.80;;;12.86;49.07;96243.06;5060992;28;20043;-52
2023/04/01 02:01:28;;;;;;;1.33;0.90;;;10.00;76.80;;;12.75;49.26;96222.34;5052393;28;20037;-54
2023/04/01 02:04:00;;;;;;;1.10;0.50;;;9.90;77.10;;;12.86;49.45;96231.56;5039585;28;20053;-53
2023/04/01 02:06:32;;;;;;;3.30;1.10;;;9.90;77.80;;;12.90;49.45;96238.13;5058212;28;20059;-53
2023/04/01 02:09:06;;;;;;;0.73;0.53;;;9.90;77.90;;;12.81;49.61;96234.84;5047483;28;20051;-53
2023/04/01 02:11:50;;;;;;;2.20;0.80;;;9.80;78.00;;;12.79;49.82;96232.41;5062176;28;20048;-51
2023/04/01 02:14:26;;;;;;;6.47;1.30;;;9.80;78.40;;;12.77;49.71;96223.75;5061371;28;20037;-53
2023/04/01 02:17:09;;;;;;;2.83;0.63;;;9.80;77.40;;;12.59;49.60;96221.75;5052948;28;20044;-53
2023/04/01 02:19:45;;;;;;;2.13;0.70;;;9.80;76.40;;;12.65;49.30;96227.31;5045753;28;20052;-54
2023/04/01 02:22:18;;;;;;;1.57;0.90;;;9.80;76.00;;;12.61;49.30;96218.88;5047054;28;20044;-52
2023/04/01 02:24:48;;;;;;;1.05;0.70;;;9.70;76.00;;;12.61;49.06;96218.88;5044352;28;20134;-53
2023/04/01 02:27:15;;;;;;;2.30;0.80;;;9.80;75.00;;;12.59;48.78;96226.28;5052335;28;20414;-54
2023/04/01 02:29:44;;;;;;;2.80;1.13;;;9.80;74.00;;;12.68;48.74;96224.19;5062472;28;20421;-53
2023/04/01 02:32:14;;;;;;;1.90;0.90;;;9.80;74.50;;;12.65;48.21;96232.66;5063169;28;20468;-54
2023/04/01 02:34:42;;;;;;;1.00;0.63;;;9.80;73.00;;;12.57;48.68;96237.16;5044632;28;20521;-52
2023/04/01 02:37:12;;;;;;;1.40;0.80;;;9.80;74.00;;;12.59;48.95;96226.28;5040234;28;20049;-53
2023/04/01 02:39:40;;;;;;;1.53;0.77;;;9.80;73.60;;;12.65;48.35;96243.31;5060497;28;20055;-53
2023/04/01 02:42:08;;;;;;;3.93;0.90;;;9.70;73.30;;;12.54;48.78;96229.59;5062761;28;20088;-53
2023/04/01 02:44:36;;;;;;;1.03;0.57;;;9.80;73.50;;;12.65;48.74;96238.00;5061145;28;20049;-53
2023/04/01 02:47:04;;;;;;;1.90;0.60;;;9.70;73.90;;;12.51;48.94;96239.88;5059781;28;20041;-52
2023/04/01 02:49:31;;;;;;;0.90;0.50;;;9.80;73.40;;;12.60;48.36;96241.25;5061909;28;20044;-53
2023/04/01 02:51:59;;;;;;;2.83;0.80;;;9.80;73.10;;;12.68;48.41;96240.22;5062902;28;20048;-55
2023/04/01 02:54:27;;;;;;;1.23;0.70;;;9.80;74.20;;;12.48;48.83;96237.59;5062434;28;20056;-53
2023/04/01 02:56:54;;;;;;;1.87;1.33;;;9.70;74.10;;;12.41;49.15;96233.09;5059066;28;20049;-54
2023/04/01 02:59:22;;;;;;;1.83;0.70;;;9.60;74.50;;;12.44;48.66;96226.50;5059202;28;20062;-53
2023/04/01 03:01:49;;;;;;;0.93;0.70;;;9.60;74.60;;;12.49;48.44;96226.72;5063731;28;20041;-53
2023/04/01 03:04:17;;;;;;;2.00;0.80;;;9.50;74.80;;;12.41;48.77;96226.94;5063527;28;20067;-54
2023/04/01 03:06:45;;;;;;;3.23;1.00;;;9.50;75.00;;;12.40;48.70;96244.78;5059544;28;20631;-53
2023/04/01 03:09:12;;;;;;;2.03;0.67;;;9.50;75.10;;;12.41;48.52;96245.63;5060710;28;20414;-53
2023/04/01 03:11:40;;;;;;;1.30;0.60;;;9.50;74.60;;;12.34;48.73;96228.78;5060490;28;20517;-55
2023/04/01 03:14:08;;;;;;;2.10;1.20;;;9.50;74.80;;;12.43;48.48;96240.06;5062252;28;20067;-54
2023/04/01 03:16:35;;;;;;;1.53;0.70;;;9.50;74.40;;;12.33;48.78;96237.81;5060122;28;20053;-54
2023/04/01 03:19:03;;;;;;;0.93;0.70;;;9.50;74.70;;;12.11;49.31;96231.88;5058898;28;20037;-51
2023/04/01 03:21:31;;;;;;;2.10;0.57;;;9.40;74.80;;;12.07;49.15;96235.97;5059063;28;20372;-55
2023/04/01 03:23:58;;;;;;;1.30;0.60;;;9.40;74.90;;;11.98;49.47;96244.19;5062194;28;20045;-54
2023/04/01 03:26:28;;;;;;;1.63;0.70;;;9.30;75.30;;;12.11;49.72;96234.53;5045274;28;20045;-54
2023/04/01 03:28:57;;;;;;;0.73;0.60;;;9.30;76.00;;;12.08;49.42;96237.59;5058692;28;20505;-55
2023/04/01 03:31:24;;;;;;;2.27;0.60;;;9.20;76.60;;;12.13;49.48;96237.81;5058893;28;20045;-54
2023/04/01 03:33:56;;;;;;;3.77;1.10;;;9.20;76.90;;;12.17;49.34;96236.38;5041876;28;20048;-55
2023/04/01 03:36:23;;;;;;;2.10;0.90;;;9.20;77.20;;;12.20;49.51;96239.47;5050080;28;20037;-54
2023/04/01 03:38:51;;;;;;;1.50;0.53;;;9.20;77.40;;;12.21;49.57;96230.44;5061943;28;20040;-53
2023/04/01 03:41:28;;;;;;;1.20;0.73;;;9.20;77.70;;;12.16;49.77;96226.75;5054825;28;20505;-55
2023/04/01 03:43:56;;;;;;;0.87;0.53;;;9.10;78.00;;;12.08;50.23;96225.09;5058024;28;20045;-52
2023/04/01 03:46:23;;;;;;;2.27;0.77;;;9.10;78.60;;;12.11;50.05;96226.53;5060078;28;20048;-52
2023/04/01 03:48:51;;;;;;;1.60;0.60;;;9.10;78.50;;;12.13;49.86;96225.28;5063015;28;20059;-52
2023/04/01 03:51:19;;;;;;;1.20;0.70;;;9.10;78.80;;;12.14;50.07;96221.63;5061625;28;20068;-54
2023/04/01 03:53:47;;;;;;;1.17;0.63;;;9.10;78.70;;;12.11;50.22;96224.69;5059015;28;20052;-55
2023/04/01 03:56:14;;;;;;;3.07;0.70;;;9.20;78.80;;;12.14;49.79;96226.13;5058223;28;20072;-54
2023/04/01 03:58:42;;;;;;;0.87;0.53;;;9.10;78.50;;;12.12;50.07;96222.84;5061562;28;20041;-54
2023/04/01 04:01:20;;;;;;;0.90;0.60;;;9.10;78.20;;;12.19;49.84;96223.66;5061746;28;20045;-54
2023/04/01 04:03:50;;;;;;;1.03;0.70;;;9.10;78.10;;;12.17;49.63;96220.38;5058309;28;20049;-53
2023/04/01 04:06:19;;;;;;;0.97;0.50;;;9.10;78.20;;;12.14;49.94;96215.47;5058112;28;20048;-55
2023/04/01 04:08:48;;;;;;;2.77;0.77;;;9.10;78.30;;;12.15;49.94;96209.91;5059916;28;20065;-55
2023/04/01 04:11:16;;;;;;;1.90;0.70;;;9.20;77.70;;;12.21;49.65;96202.94;5061986;28;20049;-50
2023/04/01 04:13:44;;;;;;;1.57;0.80;;;9.20;77.60;;;12.19;49.56;96202.31;5058792;28;20048;-55
2023/04/01 04:16:12;;;;;;;0.70;0.60;;;9.20;77.50;;;12.23;49.25;96200.88;5041005;28;20045;-51
2023/04/01 04:18:45;;;;;;;2.30;0.70;;;9.20;77.60;;;12.27;49.54;96201.28;5058870;28;20036;-53
2023/04/01 04:21:15;;;;;;;1.43;0.73;;;9.20;77.50;;;12.18;49.66;96206.84;5062681;28;20040;-53
2023/04/01 04:23:43;;;;;;;1.23;0.90;;;9.20;76.90;;;12.14;49.95;96202.13;5059370;28;20064;-55
2023/04/01 04:26:14;;;;;;;1.67;0.93;;;9.20;76.30;;;12.23;49.37;96198.19;5057779;28;20048;-55
2023/04/01 04:28:47;;;;;;;0.40;0.40;;;9.20;76.60;;;12.14;49.50;96204.81;5059330;28;20049;-54
2023/04/01 04:31:23;;;;;;;2.07;0.63;;;9.20;75.90;;;12.20;49.37;96206.63;5061604;28;20055;-54
2023/04/01 04:33:53;;;;;;;5.03;0.70;;;9.30;76.10;;;12.23;49.45;96203.53;5057985;28;20045;-54
2023/04/01 04:36:21;;;;;;;1.17;0.40;;;9.30;76.20;;;12.22;49.33;96199.25;5057709;28;20061;-55
2023/04/01 04:38:50;;;;;;;1.50;0.60;;;9.30;76.00;;;12.05;49.64;96211.34;5060596;28;20053;-52
2023/04/01 04:41:21;;;;;;;2.57;0.90;;;9.30;75.70;;;12.04;49.33;96194.53;5061041;28;20059;-53
2023/04/01 04:43:55;;;;;;;3.40;0.93;;;9.20;76.00;;;12.05;49.41;96193.50;5041983;28;20057;-54
2023/04/01 04:46:25;;;;;;;1.83;0.63;;;9.20;76.20;;;12.02;49.64;96199.25;5057749;28;20049;-54
2023/04/01 04:49:03;;;;;;;1.80;0.57;;;9.10;76.50;;;12.00;49.43;96191.47;5050332;28;20049;-55
2023/04/01 04:51:33;;;;;;;0.67;0.60;;;9.10;76.50;;;11.92;49.66;96190.84;5057177;28;20045;-55
2023/04/01 04:54:03;;;;;;;1.20;0.67;;;9.10;77.10;;;12.01;49.58;96185.09;5048974;28;20045;-55
2023/04/01 04:56:46;;;;;;;2.37;1.47;;;9.00;77.10;;;11.88;49.64;96195.72;5041685;28;20065;-53
2023/04/01 04:59:14;;;;;;;1.97;0.60;;;9.00;77.30;;;11.84;49.95;96189.16;5062495;28;20043;-55
2023/04/01 05:01:48;;;;;;;0.73;0.57;;;8.90;77.60;;;11.81;49.82;96198.41;5042695;28;20413;-54
2023/04/01 05:04:16;;;;;;;3.73;0.90;;;8.90;77.90;;;11.83;49.88;96188.34;5056872;28;20049;-52
2023/04/01 05:06:44;;;;;;;0.93;0.70;;;8.90;78.20;;;11.78;50.28;96192.66;5058356;28;20053;-54
2023/04/01 05:09:12;;;;;;;1.43;1.13;;;8.90;78.20;;;11.78;50.32;96188.13;5060854;28;20047;-52
2023/04/01 05:11:40;;;;;;;0.87;0.53;;;8.90;78.30;;;11.63;50.51;96199.00;5043578;28;20045;-52
2023/04/01 05:14:14;;;;;;;1.70;1.43;;;8.90;78.20;;;11.75;50.40;96203.72;5040525;28;20490;-54
2023/04/01 05:16:45;;;;;;;2.13;0.93;;;8.90;78.30;;;11.73;50.22;96197.75;5065506;28;20053;-54
2023/04/01 05:19:12;;;;;;;1.47;0.60;;;8.80;78.30;;;11.78;50.37;96193.47;5060340;28;20045;-52
2023/04/01 05:21:40;;;;;;;2.90;1.47;;;8.90;78.20;;;11.87;50.16;96191.44;5060273;28;20040;-54
2023/04/01 05:24:09;;;;;;;0.93;0.60;;;8.90;78.00;;;11.70;50.63;96188.34;5057239;28;20053;-52
2023/04/01 05:26:37;;;;;;;3.13;1.00;;;8.90;78.00;;;11.64;50.68;96181.16;5057924;28;20040;-54
2023/04/01 05:29:05;;;;;;;2.93;0.80;;;8.90;77.60;;;11.75;50.36;96185.06;5044814;28;20049;-54
2023/04/01 05:31:33;;;;;;;2.93;0.70;;;8.90;77.50;;;11.87;50.18;96196.75;5060568;28;20056;-54
2023/04/01 05:34:02;;;;;;;1.13;0.70;;;9.00;77.10;;;11.92;49.87;96183.66;5048802;28;20045;-52
2023/04/01 05:36:30;;;;;;;1.60;0.60;;;9.00;76.90;;;11.97;49.68;96180.38;5056984;28;20418;-53
2023/04/01 05:38:58;;;;;;;2.43;0.80;;;9.00;76.90;;;11.97;50.00;96177.72;5061113;28;20047;-53
2023/04/01 05:41:27;;;;;;;2.00;0.80;;;9.10;76.80;;;12.04;50.02;96172.34;5062110;28;20040;-54
2023/04/01 05:43:55;;;;;;;2.83;1.00;;;9.20;76.90;;;12.09;49.88;96176.06;5064299;28;20037;-54
2023/04/01 05:46:41;;;;;;;1.20;0.80;;;9.20;76.50;;;12.07;49.96;96174.63;5065810;28;20044;-52
2023/04/01 05:49:16;;;;;;;2.97;0.80;;;9.20;77.10;;;12.08;49.45;96171.75;5069008;28;20425;-55
2023/04/01 05:51:43;;;;;;;1.67;1.57;;;9.20;76.50;;;11.98;50.14;96171.34;5061150;28;20060;-52
2023/04/01 05:54:11;;;;;;;1.33;0.60;;;9.20;76.50;;;12.13;49.83;96168.47;5063545;28;20048;-54
2023/04/01 05:56:39;;;;;;;1.27;0.80;;;9.20;76.60;;;12.25;49.50;96177.47;5063742;28;20041;-54
2023/04/01 05:59:11;;;;;;;2.10;0.70;;;9.30;76.80;;;12.22;49.34;96172.56;5040893;28;20041;-54
2023/04/01 06:01:39;;;;;;;1.00;0.83;;;9.30;76.20;;;12.21;49.76;96168.25;5057218;28;20449;-54
2023/04/01 06:04:15;;;;;;;1.90;0.60;;;9.30;76.20;;;12.19;49.44;96171.13;5063619;28;20044;-54
2023/04/01 06:06:43;;;;;;;2.60;0.87;;;9.30;76.50;;;12.28;49.34;96166.41;5046951;28;20056;-52
2023/04/01 06:09:21;;;;;;;1.10;0.67;;;9.30;76.10;;;12.31;49.16;96174.00;5060069;28;20453;-53
2023/04/01 06:12:21;;;;;;;1.10;0.63;;;9.30;75.90;;;12.34;49.10;96175.41;5061839;28;20049;-54
2023/04/01 06:15:44;;;;;;;2.00;0.60;;;9.40;75.80;;;12.10;49.59;96172.38;5061551;28;20055;-53
2023/04/01 06:18:49;;;;;;;1.47;0.60;;;9.40;74.70;;;12.35;49.17;96169.88;4980931;28;20082;-52
2023/04/01 06:21:45;;;;;;;0.53;0.37;;;9.50;75.40;;;12.24;49.39;96178.50;4983039;28;20045;-53
2023/04/01 06:24:34;;;;;;;1.33;0.80;;;9.60;75.00;;;12.25;49.40;96174.00;5052455;28;20417;-54
2023/04/01 06:27:46;;;;;;;2.53;0.70;;;9.50;75.10;;;12.23;49.51;96182.19;5063214;28;20562;-51
2023/04/01 06:30:30;;;;;;;1.30;0.80;;;9.60;75.00;;;12.34;49.46;96181.56;5053079;28;20049;-54
2023/04/01 06:33:08;;;;;;;2.73;0.93;;;9.50;75.20;;;12.50;49.36;96184.81;5078036;28;20425;-53
2023/04/01 06:35:49;;;;;;;0.97;0.70;;;9.60;75.10;;;12.33;49.37;96179.94;5063406;28;20041;-52
2023/04/01 06:38:43;;;;;;;2.87;1.17;;;9.60;75.70;;;12.36;49.47;96184.03;5043286;28;20041;-52
2023/04/01 06:42:05;;;;;;;2.83;0.73;;;9.50;76.00;;;12.29;49.71;96189.41;5053666;28;20044;-50
2023/04/01 06:44:51;;;;;;;0.83;0.70;;;9.50;76.40;;;12.21;50.14;96185.09;5056100;28;20056;-53
2023/04/01 06:47:43;;;;;;;1.40;0.60;;;9.40;77.00;;;12.32;50.18;96183.63;5057929;28;20052;-53
2023/04/01 06:51:26;;;;;;;1.83;0.57;;;9.50;77.80;;;12.28;50.68;96189.59;5059315;28;20045;-50
2023/04/01 06:54:44;;;;;;;0.50;0.40;;;9.40;78.40;;;12.43;50.21;96189.34;4994326;28;20050;-53
2023/04/01 06:57:55;;;;;;;1.03;0.53;;;9.40;78.50;;;12.27;50.73;96194.13;5056143;28;20056;-52
2023/04/01 07:00:41;;;;;;;2.60;0.90;;;9.40;79.10;;;12.27;51.02;96188.78;5037189;28;20061;-53
2023/04/01 07:03:47;;;;;;;1.93;0.80;;;9.40;79.80;;;12.36;50.75;96195.53;5035056;28;20410;-55
2023/04/01 07:06:27;;;;;;;0.53;0.53;;;9.50;80.40;;;12.52;50.65;96190.78;5001230;28;20080;-50
2023/04/01 07:09:02;;;;;;;0.97;0.50;;;9.60;79.70;;;12.58;50.65;96184.59;5060631;28;20050;-52
2023/04/01 07:11:58;;;;;;;1.80;1.10;;;9.70;79.70;;;12.58;50.64;96184.59;5061046;28;20060;-52
2023/04/01 07:14:48;;;;;;;1.13;0.60;;;9.70;78.70;;;12.44;50.84;96186.47;5062096;28;20433;-54
2023/04/01 07:17:26;;;;;;;0.73;0.73;;;9.60;79.30;;;12.54;50.51;96189.56;5046383;28;20422;-56
2023/04/01 07:20:06;;;;;;;1.80;0.60;;;9.60;79.20;;;12.57;50.68;96190.97;5044753;28;20045;-53
2023/04/01 07:22:40;;;;;;;0.77;0.53;;;9.60;78.80;;;12.56;50.81;96190.16;5038779;28;20045;-54
2023/04/01 07:25:37;;;;;;;1.40;0.90;;;9.70;79.30;;;12.31;51.07;96200.69;5058780;28;20056;-53
2023/04/01 07:28:23;;;;;;;;;;;9.60;79.10;;;12.54;50.67;96202.06;5056197;28;20056;-53
2023/04/01 07:31:40;;;;;;;1.60;0.90;;;9.60;80.40;;;12.55;50.86;96195.69;5061424;28;19924;-54
2023/04/01 07:34:29;;;;;;;2.40;1.17;;;9.60;79.80;;;12.55;50.80;96195.69;5001503;28;20067;-52
2023/04/01 07:37:17;;;;;;;0.57;0.57;;;9.60;79.80;;;12.40;51.19;96206.59;5044037;28;20051;-52
2023/04/01 07:39:53;;;;;;;1.03;0.70;;;9.60;79.30;;;12.53;50.77;96206.59;5058540;28;20155;-50
2023/04/01 07:42:59;;;;;;;2.03;0.80;;;9.60;79.60;;;12.76;50.45;96205.31;5062661;28;20056;-54
2023/04/01 07:45:42;;;;;;;1.03;0.80;;;9.80;79.20;;;12.77;50.43;96193.56;5053205;28;20044;-52
2023/04/01 07:48:31;;;;;;;1.00;0.70;;;9.80;78.80;;;12.76;50.63;96206.13;5043820;28;20045;-52
2023/04/01 07:51:26;;;;;;;0.73;0.73;;;9.90;78.50;;;12.65;50.48;96206.75;5060270;28;20045;-52
2023/04/01 07:54:00;;;;;;;0.80;0.60;;;9.80;77.70;;;12.81;50.39;96202.81;5052113;28;20502;-51
2023/04/01 07:56:58;;;;;;;1.13;0.57;;;9.80;78.60;;;12.93;50.52;96208.31;5037510;28;20079;-54
2023/04/01 08:00:24;;;;;;;1.23;0.67;;;10.00;78.60;;;13.02;50.06;96207.06;5022458;28;20245;-54
2023/04/01 08:03:41;;;;;;;0.53;0.53;;;10.00;77.70;;;12.99;50.19;96221.66;5011142;28;20041;-51
2023/04/01 08:06:20;;;;;;;0.60;0.60;;;10.00;77.80;;;13.09;50.16;96212.38;5050910;28;20078;-49
2023/04/01 08:09:38;;;;;;;1.17;1.00;;;10.10;79.20;;;12.96;50.69;96202.56;5034247;28;20429;-52
2023/04/01 08:13:10;;;;;;;1.13;1.03;;;10.10;79.50;;;12.87;51.03;96207.34;5032924;28;20060;-52
2023/04/01 08:16:25;;;;;;;1.05;0.95;;;9.90;80.40;;;12.94;51.21;96217.97;5044559;28;20044;-52
2023/04/01 08:19:57;;;;;;;2.53;1.10;;;9.90;82.50;;;12.91;51.60;96213.88;5058073;28;20041;-52
2023/04/01 08:22:45;;;;;;;0.97;0.90;;;10.00;81.20;;;12.96;51.07;96224.75;5052190;28;20036;-51
2023/04/01 08:25:28;;;;;;;2.27;1.60;;;10.00;81.10;;;12.96;51.63;96239.97;5038401;28;20044;-53
2023/04/01 08:28:15;;;;;;;0.60;0.50;;;10.10;82.00;;;12.81;52.49;96226.84;5041683;28;20053;-54
2023/04/01 08:30:57;;;;;;;1.60;0.93;;;10.00;83.50;;;12.73;52.25;96238.56;5047066;28;20045;-54
2023/04/01 08:33:28;;;;;;;0.83;0.50;;;9.90;85.00;;;12.82;52.86;96227.69;5041717;28;20295;-52
2023/04/01 08:36:18;;;;;;;1.17;0.93;;;9.80;87.70;;;12.65;53.63;96233.47;5059787;28;20056;-54
2023/04/01 08:39:29;;;;;;;1.53;1.00;;;9.70;89.20;;;12.64;54.14;96229.16;5045224;28;20056;-54
2023/04/01 08:42:11;;;;;;;1.75;1.20;;;9.70;90.90;;;12.73;53.25;96232.41;5060934;28;20056;-52
2023/04/01 08:45:21;;;;;;;0.97;0.80;;;9.60;91.80;;;12.66;53.56;96227.09;5045857;28;20075;-54
2023/04/01 08:48:28;;;;;;;1.47;0.70;;;9.60;93.10;;;12.68;53.27;96233.06;5060040;28;20045;-54
2023/04/01 08:51:22;;;;;;;0.93;0.80;;;9.60;94.50;;;12.68;53.48;96224.19;5059607;28;20060;-52
2023/04/01 08:54:14;;;;;;;1.23;0.87;;;9.60;95.60;;;12.68;53.68;96222.38;5057889;28;20055;-51
2023/04/01 08:57:00;;;;;;;1.57;0.93;;;9.60;94.90;;;12.80;53.33;96207.34;5044471;28;20044;-54
2023/04/01 09:00:23;;;;;;;1.67;1.00;;;9.70;95.00;;;12.74;53.60;96223.38;5052049;28;20533;-53
2023/04/01 09:03:48;;;;;;;1.53;0.83;;;9.80;94.30;;;12.68;53.30;96226.88;5055692;28;20056;-52
2023/04/01 09:07:29;;;;;;;0.88;0.77;;;9.80;92.80;;;12.76;53.61;96214.13;5049431;28;20045;-53
2023/04/01 09:10:33;;;;;;;3.50;2.97;;;9.80;93.50;;;13.06;53.19;96218.94;4990762;28;20058;-50
2023/04/01 09:13:31;;;;;;;1.57;1.20;;;10.10;93.20;;;13.21;52.69;96226.72;5058592;28;20045;-54
2023/04/01 09:16:22;;;;;;;0.60;0.60;;;10.20;90.70;;;12.97;52.82;96226.41;5062553;28;20048;-57
2023/04/01 09:19:19;;;;;;;1.03;0.70;;;10.20;87.40;;;13.14;52.56;96225.91;5046166;28;20048;-53
2023/04/01 09:22:09;;;;;;;0.63;0.63;;;10.30;88.10;;;13.28;52.54;96222.16;5045358;28;20041;-53
2023/04/01 09:25:01;;;;;;;0.63;0.60;;;10.40;88.40;;;13.09;52.29;96226.56;5049669;28;20037;-53
2023/04/01 09:27:41;;;;;;;0.67;0.50;;;10.40;85.10;;;12.99;52.87;96236.88;5038714;28;20049;-53
2023/04/01 09:30:51;;;;;;;0.63;0.30;;;10.30;85.30;;;13.03;51.19;96239.91;5046076;28;20044;-52
2023/04/01 09:34:08;;;;;;;0.40;0.30;;;10.30;81.70;;;12.64;51.97;96237.19;5041115;28;20498;-54
2023/04/01 09:37:36;;;;;;;0.50;0.50;;;10.10;83.00;;;12.67;51.85;96233.25;5046753;28;20049;-52
2023/04/01 09:40:31;;;;;;;;;;;10.10;82.40;;;12.46;51.93;96243.13;5061912;28;20044;-51
2023/04/01 09:43:57;;;;;;;4.13;2.77;;;10.00;81.20;;;12.44;51.76;96236.38;5061870;28;19920;-51
2023/04/01 09:46:45;;;;;;;5.10;4.60;;;9.90;80.90;;;12.85;51.61;96248.63;4964548;28;20043;-53
2023/04/01 09:49:42;;;;;;;3.20;2.90;;;10.10;81.50;;;12.79;50.91;96247.59;5047341;28;20531;-50
2023/04/01 09:52:53;;;;;;;1.23;1.10;;;10.10;80.60;;;12.84;50.96;96242.47;5046610;28;20317;-54
2023/04/01 09:55:33;;;;;;;;;;;10.10;79.10;;;12.88;50.60;96253.56;5054468;28;20494;-55
2023/04/01 09:58:33;;;;;;;0.73;0.73;;;10.10;78.70;;;12.56;50.82;96248.06;5062378;28;20313;-55
2023/04/01 10:02:22;;;;;;;0.47;0.47;;;10.00;78.10;;;12.59;50.90;96247.66;5057337;28;20402;-53
2023/04/01 10:05:54;;;;;;;0.50;0.50;;;10.00;77.40;;;12.83;50.42;96256.03;5056828;28;20452;-53
2023/04/01 10:08:31;;;;;;;1.03;0.90;;;10.20;76.60;;;13.04;50.24;96244.25;5034227;28;20041;-54
2023/04/01 10:11:46;;;;;;;1.07;0.90;;;10.30;77.10;;;12.98;50.22;96254.72;5061360;28;20044;-52
2023/04/01 10:14:43;;;;;;;0.93;0.60;;;10.50;76.20;;;12.99;50.14;96251.03;5045296;28;20056;-54
2023/04/01 10:17:46;;;;;;;1.23;0.80;;;10.40;76.10;;;13.22;49.97;96271.09;5048360;28;20045;-54
2023/04/01 10:20:50;;;;;;;1.73;1.50;;;10.50;76.00;;;13.04;49.72;96253.06;5036393;28;20044;-53
2023/04/01 10:23:59;;;;;;;1.00;0.90;;;10.50;75.40;;;13.14;49.75;96249.97;5051786;28;20037;-53
2023/04/01 10:27:14;;;;;;;1.27;0.53;;;10.50;75.10;;;13.28;48.93;96259.59;5044087;28;20069;-51
2023/04/01 10:30:38;;;;;;;1.63;1.13;;;10.60;74.20;;;13.19;49.13;96255.50;5008458;28;20061;-54
2023/04/01 10:33:33;;;;;;;0.83;0.60;;;10.60;74.60;;;13.15;49.83;96263.13;5060065;28;20056;-54
2023/04/01 10:36:37;;;;;;;0.53;0.50;;;10.50;75.80;;;13.22;49.19;96243.56;5061039;28;20497;-51
2023/04/01 10:39:21;;;;;;;0.57;0.57;;;10.50;75.50;;;13.16;49.38;96261.25;5046162;28;20067;-53
2023/04/01 10:42:41;;;;;;;0.60;0.60;;;10.40;75.50;;;13.07;49.60;96246.50;5059811;28;20056;-53
2023/04/01 10:46:29;;;;;;;0.40;0.40;;;10.40;75.30;;;13.33;49.10;96258.97;5054405;28;20494;-51
2023/04/01 10:49:42;;;;;;;0.77;0.50;;;10.60;74.60;;;13.14;49.43;96245.47;5071155;28;20515;-53
2023/04/01 10:53:05;;;;;;;0.83;0.53;;;10.60;74.80;;;13.25;48.88;96265.34;5059945;28;20059;-54
2023/04/01 10:56:36;;;;;;;0.40;0.40;;;10.70;74.10;;;13.33;48.89;96254.44;5021066;28;20053;-50
2023/04/01 11:00:01;;;;;;;0.60;0.60;;;10.80;73.30;;;13.48;48.86;96243.47;5053781;28;20048;-52
2023/04/01 11:03:24;;;;;;;0.80;0.70;;;10.90;72.90;;;13.63;48.49;96245.03;5057661;28;20532;-53
2023/04/01 11:06:44;;;;;;;0.70;0.70;;;11.00;72.10;;;13.59;48.59;96253.50;5060659;28;20048;-49
2023/04/01 11:09:39;;;;;;;3.10;0.80;;;11.00;72.50;;;13.72;48.28;96268.63;5059739;28;20044;-50
2023/04/01 11:13:00;;;;;;;1.23;0.52;;;11.00;71.80;;;13.72;47.53;96282.00;5042848;28;20049;-53
2023/04/01 11:16:03;;;;;;;0.73;0.73;;;11.10;71.30;;;13.67;47.87;96267.66;5051614;28;20048;-50
2023/04/01 11:19:11;;;;;;;0.90;0.70;;;11.10;71.20;;;13.57;47.89;96254.72;5052331;28;20048;-50
2023/04/01 11:22:25;;;;;;;0.65;0.65;;;11.10;70.40;;;13.68;47.97;96269.28;5066613;28;20072;-53
2023/04/01 11:25:32;;;;;;;0.40;0.40;;;11.20;71.00;;;13.50;48.19;96262.78;5066985;28;20051;-51
2023/04/01 11:29:18;;;;;;;0.68;0.50;;;11.20;70.00;;;13.63;47.90;96275.28;5053769;28;20048;-53
2023/04/01 11:32:00;;;;;;;1.05;0.82;;;11.20;69.70;;;13.98;47.74;96258.81;5054233;28;20051;-51
2023/04/01 11:34:49;;;;;;;0.47;0.47;;;11.30;70.90;;;14.00;47.61;96272.81;5052537;28;20052;-53
2023/04/01 11:37:51;;;;;;;0.75;0.57;;;11.40;69.80;;;13.96;47.34;96271.59;5045312;28;20044;-53
2023/04/01 11:41:31;;;;;;;0.40;0.40;;;11.40;69.70;;;13.89;47.15;96282.31;5054175;28;20056;-53